KNLC/NLC METAR and TAF weather

Enter ICAO airport designator
Station Type Date Time Source
KNLC METAR 2019/09/21 04:56 UTC NOAA

KNLC 210456Z 30008KT 10SM CLR 18/06 A2991 RMK AO2 SLP128 T01830061


Station Type Date Time Source
KNLC Decoded METAR 2019/09/21 04:56 UTC NOAA

LEMOORE NAVAL AIR STATION, CA, United States (KNLC) 36-20N 119-57W 72M
Sep 21, 2019 - 12:56 AM EDT / 2019.09.21 0456 UTC
Wind: from the WNW (300 degrees) at 9 MPH (8 KT):0
Visibility: 10 mile(s):0
Sky conditions: clear
Temperature: 64.9 F (18.3 C)
Dew Point: 43.0 F (6.1 C)
Relative Humidity: 44%
Pressure (altimeter): 29.91 in. Hg (1012 hPa)
ob: KNLC 210456Z 30008KT 10SM CLR 18/06 A2991 RMK AO2 SLP128 T01830061
cycle: 5

Station Type Date Time Source
KNLC TAF 2019/09/20 23:06 UTC NOAA

TAF KNLC 2023/2123 36011KT 9999 FEW050 QNH2983INS
FM210300 31008KT 9999 SKC QNH2981INS
TEMPO 2103/2109 VRB06KT
FM210900 VRB06KT 9999 SKC 531809 532709 533609 QNH2987INS T11/2113Z T32/2123Z FS30012

Example: see airport list